sensor_id;sensor_type;location;lat;lon;timestamp;temperature;humidity
66088;DHT22;52872;52.994;6.940;2023-04-06T00:00:49;4.90;97.60
66088;DHT22;52872;52.994;6.940;2023-04-06T00:03:16;4.90;97.80
66088;DHT22;52872;52.994;6.940;2023-04-06T00:05:43;4.80;98.00
66088;DHT22;52872;52.994;6.940;2023-04-06T00:08:10;4.80;98.20
66088;DHT22;52872;52.994;6.940;2023-04-06T00:10:37;4.80;98.30
66088;DHT22;52872;52.994;6.940;2023-04-06T00:13:05;4.80;98.60
66088;DHT22;52872;52.994;6.940;2023-04-06T00:15:32;4.70;98.80
66088;DHT22;52872;52.994;6.940;2023-04-06T00:18:00;4.70;99.00
66088;DHT22;52872;52.994;6.940;2023-04-06T00:20:27;4.70;99.00
66088;DHT22;52872;52.994;6.940;2023-04-06T00:22:54;4.70;99.20
66088;DHT22;52872;52.994;6.940;2023-04-06T00:25:21;4.70;99.30
66088;DHT22;52872;52.994;6.940;2023-04-06T00:27:48;4.60;99.40
66088;DHT22;52872;52.994;6.940;2023-04-06T00:30:15;4.60;99.60
66088;DHT22;52872;52.994;6.940;2023-04-06T00:32:42;4.60;99.70
66088;DHT22;52872;52.994;6.940;2023-04-06T00:35:09;4.50;99.90
66088;DHT22;52872;52.994;6.940;2023-04-06T00:37:36;4.50;99.90
66088;DHT22;52872;52.994;6.940;2023-04-06T00:40:03;4.50;99.90
66088;DHT22;52872;52.994;6.940;2023-04-06T00:42:30;4.50;99.90
66088;DHT22;52872;52.994;6.940;2023-04-06T00:44:59;4.50;99.90
66088;DHT22;52872;52.994;6.940;2023-04-06T00:47:26;4.50;99.90
66088;DHT22;52872;52.994;6.940;2023-04-06T00:49:54;4.50;99.90
66088;DHT22;52872;52.994;6.940;2023-04-06T00:52:22;4.40;99.90
66088;DHT22;52872;52.994;6.940;2023-04-06T00:54:49;4.40;99.90
66088;DHT22;52872;52.994;6.940;2023-04-06T00:57:19;4.40;99.90
66088;DHT22;52872;52.994;6.940;2023-04-06T00:59:52;4.30;99.90
66088;DHT22;52872;52.994;6.940;2023-04-06T01:02:20;4.30;99.90
66088;DHT22;52872;52.994;6.940;2023-04-06T01:04:50;4.30;99.90
66088;DHT22;52872;52.994;6.940;2023-04-06T01:07:30;4.30;99.90
66088;DHT22;52872;52.994;6.940;2023-04-06T01:10:24;4.20;99.90
66088;DHT22;52872;52.994;6.940;2023-04-06T01:12:57;4.20;99.90
66088;DHT22;52872;52.994;6.940;2023-04-06T01:15:44;4.20;99.90
66088;DHT22;52872;52.994;6.940;2023-04-06T01:18:16;4.10;99.90
66088;DHT22;52872;52.994;6.940;2023-04-06T01:20:52;4.10;99.90
66088;DHT22;52872;52.994;6.940;2023-04-06T01:23:20;4.10;99.90
66088;DHT22;52872;52.994;6.940;2023-04-06T01:25:47;4.10;99.90
66088;DHT22;52872;52.994;6.940;2023-04-06T01:28:14;4.10;99.90
66088;DHT22;52872;52.994;6.940;2023-04-06T01:30:52;4.00;99.90
66088;DHT22;52872;52.994;6.940;2023-04-06T01:33:57;4.00;99.90
66088;DHT22;52872;52.994;6.940;2023-04-06T01:36:25;4.00;99.90
66088;DHT22;52872;52.994;6.940;2023-04-06T01:39:17;4.00;99.90
66088;DHT22;52872;52.994;6.940;2023-04-06T01:41:45;4.00;99.90
66088;DHT22;52872;52.994;6.940;2023-04-06T01:44:17;3.90;99.90
66088;DHT22;52872;52.994;6.940;2023-04-06T01:46:49;3.90;99.90
66088;DHT22;52872;52.994;6.940;2023-04-06T01:49:18;3.90;99.90
66088;DHT22;52872;52.994;6.940;2023-04-06T01:51:50;3.90;99.90
66088;DHT22;52872;52.994;6.940;2023-04-06T01:54:18;3.90;99.90
66088;DHT22;52872;52.994;6.940;2023-04-06T01:56:58;3.90;99.90
66088;DHT22;52872;52.994;6.940;2023-04-06T01:59:31;3.80;99.90
66088;DHT22;52872;52.994;6.940;2023-04-06T02:02:03;3.80;99.90
66088;DHT22;52872;52.994;6.940;2023-04-06T02:04:32;3.80;99.90
66088;DHT22;52872;52.994;6.940;2023-04-06T02:07:08;3.80;99.90
66088;DHT22;52872;52.994;6.940;2023-04-06T02:09:35;3.80;99.90
66088;DHT22;52872;52.994;6.940;2023-04-06T02:12:04;3.70;99.90
66088;DHT22;52872;52.994;6.940;2023-04-06T02:14:33;3.70;99.90
66088;DHT22;52872;52.994;6.940;2023-04-06T02:17:00;3.70;99.90
66088;DHT22;52872;52.994;6.940;2023-04-06T02:19:27;3.70;99.90
66088;DHT22;52872;52.994;6.940;2023-04-06T02:21:54;3.70;99.90
66088;DHT22;52872;52.994;6.940;2023-04-06T02:24:22;3.60;99.90
66088;DHT22;52872;52.994;6.940;2023-04-06T02:26:49;3.60;99.90
66088;DHT22;52872;52.994;6.940;2023-04-06T02:29:16;3.60;99.90
66088;DHT22;52872;52.994;6.940;2023-04-06T02:31:43;3.60;99.90
66088;DHT22;52872;52.994;6.940;2023-04-06T02:34:11;3.60;99.90
66088;DHT22;52872;52.994;6.940;2023-04-06T02:36:47;3.60;99.90
66088;DHT22;52872;52.994;6.940;2023-04-06T02:39:14;3.50;99.90
66088;DHT22;52872;52.994;6.940;2023-04-06T02:41:42;3.50;99.90
66088;DHT22;52872;52.994;6.940;2023-04-06T02:44:10;3.50;99.90
66088;DHT22;52872;52.994;6.940;2023-04-06T02:46:41;3.50;99.90
66088;DHT22;52872;52.994;6.940;2023-04-06T02:49:08;3.50;99.90
66088;DHT22;52872;52.994;6.940;2023-04-06T02:51:35;3.40;99.90
66088;DHT22;52872;52.994;6.940;2023-04-06T02:54:31;3.40;99.90
66088;DHT22;52872;52.994;6.940;2023-04-06T02:57:00;3.40;99.90
66088;DHT22;52872;52.994;6.940;2023-04-06T02:59:36;3.40;99.90
66088;DHT22;52872;52.994;6.940;2023-04-06T03:02:20;3.40;99.90
66088;DHT22;52872;52.994;6.940;2023-04-06T03:04:48;3.40;99.90
66088;DHT22;52872;52.994;6.940;2023-04-06T03:07:22;3.30;99.90
66088;DHT22;52872;52.994;6.940;2023-04-06T03:09:49;3.30;99.90
66088;DHT22;52872;52.994;6.940;2023-04-06T03:12:17;3.20;99.90
66088;DHT22;52872;52.994;6.940;2023-04-06T03:15:03;3.20;99.90
66088;DHT22;52872;52.994;6.940;2023-04-06T03:17:30;3.20;99.90
66088;DHT22;52872;52.994;6.940;2023-04-06T03:20:01;3.20;99.90
66088;DHT22;52872;52.994;6.940;2023-04-06T03:22:30;3.20;99.90
66088;DHT22;52872;52.994;6.940;2023-04-06T03:24:57;3.20;99.90
66088;DHT22;52872;52.994;6.940;2023-04-06T03:27:24;3.20;99.90
66088;DHT22;52872;52.994;6.940;2023-04-06T03:29:52;3.20;99.90
66088;DHT22;52872;52.994;6.940;2023-04-06T03:32:26;3.20;99.90
66088;DHT22;52872;52.994;6.940;2023-04-06T03:34:53;3.20;99.90
66088;DHT22;52872;52.994;6.940;2023-04-06T03:37:20;3.20;99.90
66088;DHT22;52872;52.994;6.940;2023-04-06T03:39:52;3.20;99.90
66088;DHT22;52872;52.994;6.940;2023-04-06T03:42:22;3.10;99.90
66088;DHT22;52872;52.994;6.940;2023-04-06T03:44:56;3.10;99.90
66088;DHT22;52872;52.994;6.940;2023-04-06T03:47:24;3.10;99.90
66088;DHT22;52872;52.994;6.940;2023-04-06T03:49:55;3.00;99.90
66088;DHT22;52872;52.994;6.940;2023-04-06T03:52:22;3.00;99.90
66088;DHT22;52872;52.994;6.940;2023-04-06T03:54:51;3.00;99.90
66088;DHT22;52872;52.994;6.940;2023-04-06T03:57:18;3.00;99.90
66088;DHT22;52872;52.994;6.940;2023-04-06T03:59:45;3.00;99.90
66088;DHT22;52872;52.994;6.940;2023-04-06T04:02:12;3.00;99.90
66088;DHT22;52872;52.994;6.940;2023-04-06T04:04:39;2.90;99.90
66088;DHT22;52872;52.994;6.940;2023-04-06T04:07:06;2.90;99.90
66088;DHT22;52872;52.994;6.940;2023-04-06T04:09:34;2.90;99.90
66088;DHT22;52872;52.994;6.940;2023-04-06T04:12:01;2.90;99.90
66088;DHT22;52872;52.994;6.940;2023-04-06T04:14:29;2.90;99.90
66088;DHT22;52872;52.994;6.940;2023-04-06T04:16:56;2.90;99.90
66088;DHT22;52872;52.994;6.940;2023-04-06T04:19:23;2.90;99.90
66088;DHT22;52872;52.994;6.940;2023-04-06T04:21:50;2.90;99.90
66088;DHT22;52872;52.994;6.940;2023-04-06T04:24:24;2.90;99.90
66088;DHT22;52872;52.994;6.940;2023-04-06T04:26:51;2.90;99.90
66088;DHT22;52872;52.994;6.940;2023-04-06T04:29:18;2.80;99.90
66088;DHT22;52872;52.994;6.940;2023-04-06T04:31:49;2.70;99.90
66088;DHT22;52872;52.994;6.940;2023-04-06T04:34:17;2.70;99.90
66088;DHT22;52872;52.994;6.940;2023-04-06T04:36:46;2.70;99.90
66088;DHT22;52872;52.994;6.940;2023-04-06T04:39:21;2.70;99.90
66088;DHT22;52872;52.994;6.940;2023-04-06T04:41:56;2.60;99.90
66088;DHT22;52872;52.994;6.940;2023-04-06T04:44:24;2.60;99.90
66088;DHT22;52872;52.994;6.940;2023-04-06T04:46:51;2.60;99.90
66088;DHT22;52872;52.994;6.940;2023-04-06T04:49:22;2.60;99.90
66088;DHT22;52872;52.994;6.940;2023-04-06T04:51:50;2.60;99.90
66088;DHT22;52872;52.994;6.940;2023-04-06T04:54:26;2.60;99.90
66088;DHT22;52872;52.994;6.940;2023-04-06T04:56:53;2.60;99.90
66088;DHT22;52872;52.994;6.940;2023-04-06T04:59:35;2.60;99.90
66088;DHT22;52872;52.994;6.940;2023-04-06T05:02:10;2.70;99.90
66088;DHT22;52872;52.994;6.940;2023-04-06T05:04:51;2.70;99.90
66088;DHT22;52872;52.994;6.940;2023-04-06T05:07:22;2.70;99.90
66088;DHT22;52872;52.994;6.940;2023-04-06T05:09:51;2.70;99.90
66088;DHT22;52872;52.994;6.940;2023-04-06T05:12:19;2.80;99.90
66088;DHT22;52872;52.994;6.940;2023-04-06T05:14:57;2.80;99.90
66088;DHT22;52872;52.994;6.940;2023-04-06T05:17:24;2.90;99.90
66088;DHT22;52872;52.994;6.940;2023-04-06T05:19:52;3.00;99.90
66088;DHT22;52872;52.994;6.940;2023-04-06T05:22:23;3.00;99.90
66088;DHT22;52872;52.994;6.940;2023-04-06T05:25:01;3.00;99.90
66088;DHT22;52872;52.994;6.940;2023-04-06T05:27:30;3.10;99.90
66088;DHT22;52872;52.994;6.940;2023-04-06T05:30:00;3.10;99.90
66088;DHT22;52872;52.994;6.940;2023-04-06T05:32:29;3.20;99.90
66088;DHT22;52872;52.994;6.940;2023-04-06T05:34:56;3.30;99.90
66088;DHT22;52872;52.994;6.940;2023-04-06T05:37:24;3.30;99.90
66088;DHT22;52872;52.994;6.940;2023-04-06T05:39:51;3.40;99.90
66088;DHT22;52872;52.994;6.940;2023-04-06T05:42:19;3.50;99.90
66088;DHT22;52872;52.994;6.940;2023-04-06T05:44:51;3.50;99.90
66088;DHT22;52872;52.994;6.940;2023-04-06T05:47:18;3.60;99.90
66088;DHT22;52872;52.994;6.940;2023-04-06T05:49:50;3.70;99.90
66088;DHT22;52872;52.994;6.940;2023-04-06T05:52:25;3.70;99.90
66088;DHT22;52872;52.994;6.940;2023-04-06T05:54:54;3.80;99.90
66088;DHT22;52872;52.994;6.940;2023-04-06T05:57:21;3.90;99.90
66088;DHT22;52872;52.994;6.940;2023-04-06T05:59:49;3.90;99.90
66088;DHT22;52872;52.994;6.940;2023-04-06T06:02:16;4.00;99.90
66088;DHT22;52872;52.994;6.940;2023-04-06T06:04:46;4.10;99.90
66088;DHT22;52872;52.994;6.940;2023-04-06T06:07:15;4.30;99.90
66088;DHT22;52872;52.994;6.940;2023-04-06T06:09:47;4.50;99.90
66088;DHT22;52872;52.994;6.940;2023-04-06T06:12:20;4.70;99.90
66088;DHT22;52872;52.994;6.940;2023-04-06T06:14:49;4.90;99.90
66088;DHT22;52872;52.994;6.940;2023-04-06T06:17:16;5.00;99.70
66088;DHT22;52872;52.994;6.940;2023-04-06T06:19:45;5.30;99.80
66088;DHT22;52872;52.994;6.940;2023-04-06T06:22:12;5.80;99.30
66088;DHT22;52872;52.994;6.940;2023-04-06T06:24:43;6.50;98.50
66088;DHT22;52872;52.994;6.940;2023-04-06T06:27:11;7.10;97.30
66088;DHT22;52872;52.994;6.940;2023-04-06T06:29:38;7.50;96.30
66088;DHT22;52872;52.994;6.940;2023-04-06T06:32:05;7.90;95.60
66088;DHT22;52872;52.994;6.940;2023-04-06T06:34:33;8.50;95.00
66088;DHT22;52872;52.994;6.940;2023-04-06T06:37:03;9.10;94.50
66088;DHT22;52872;52.994;6.940;2023-04-06T06:39:30;9.50;93.20
66088;DHT22;52872;52.994;6.940;2023-04-06T06:41:57;9.90;92.10
66088;DHT22;52872;52.994;6.940;2023-04-06T06:44:44;10.20;90.90
66088;DHT22;52872;52.994;6.940;2023-04-06T06:47:11;10.30;90.60
66088;DHT22;52872;52.994;6.940;2023-04-06T06:49:38;10.20;90.40
66088;DHT22;52872;52.994;6.940;2023-04-06T06:52:05;10.30;90.10
66088;DHT22;52872;52.994;6.940;2023-04-06T06:54:32;10.50;89.80
66088;DHT22;52872;52.994;6.940;2023-04-06T06:56:59;10.80;88.50
66088;DHT22;52872;52.994;6.940;2023-04-06T06:59:27;11.00;86.80
66088;DHT22;52872;52.994;6.940;2023-04-06T07:01:54;11.30;85.80
66088;DHT22;52872;52.994;6.940;2023-04-06T07:04:21;11.50;84.80
66088;DHT22;52872;52.994;6.940;2023-04-06T07:06:49;11.40;84.20
66088;DHT22;52872;52.994;6.940;2023-04-06T07:09:18;11.30;85.40
66088;DHT22;52872;52.994;6.940;2023-04-06T07:11:45;11.40;84.50
66088;DHT22;52872;52.994;6.940;2023-04-06T07:14:12;11.60;84.10
66088;DHT22;52872;52.994;6.940;2023-04-06T07:16:39;11.70;83.20
66088;DHT22;52872;52.994;6.940;2023-04-06T07:19:06;11.90;82.60
66088;DHT22;52872;52.994;6.940;2023-04-06T07:21:33;12.00;81.50
66088;DHT22;52872;52.994;6.940;2023-04-06T07:24:01;11.90;80.60
66088;DHT22;52872;52.994;6.940;2023-04-06T07:26:28;11.80;80.80
66088;DHT22;52872;52.994;6.940;2023-04-06T07:28:56;11.70;80.70
66088;DHT22;52872;52.994;6.940;2023-04-06T07:31:24;11.80;81.10
66088;DHT22;52872;52.994;6.940;2023-04-06T07:33:52;12.00;80.40
66088;DHT22;52872;52.994;6.940;2023-04-06T07:36:20;12.10;80.00
66088;DHT22;52872;52.994;6.940;2023-04-06T07:38:48;12.40;78.70
66088;DHT22;52872;52.994;6.940;2023-04-06T07:41:16;12.50;78.30
66088;DHT22;52872;52.994;6.940;2023-04-06T07:43:43;12.70;78.10
66088;DHT22;52872;52.994;6.940;2023-04-06T07:46:11;13.00;76.70
66088;DHT22;52872;52.994;6.940;2023-04-06T07:48:38;13.20;75.60
66088;DHT22;52872;52.994;6.940;2023-04-06T07:51:06;13.40;75.50
66088;DHT22;52872;52.994;6.940;2023-04-06T07:53:37;13.70;74.70
66088;DHT22;52872;52.994;6.940;2023-04-06T07:56:04;14.00;73.80
66088;DHT22;52872;52.994;6.940;2023-04-06T07:58:31;14.10;73.00
66088;DHT22;52872;52.994;6.940;2023-04-06T08:00:58;14.20;73.00
66088;DHT22;52872;52.994;6.940;2023-04-06T08:03:26;14.60;71.80
66088;DHT22;52872;52.994;6.940;2023-04-06T08:05:53;14.80;70.60
66088;DHT22;52872;52.994;6.940;2023-04-06T08:08:20;15.10;69.50
66088;DHT22;52872;52.994;6.940;2023-04-06T08:10:48;15.50;69.80
66088;DHT22;52872;52.994;6.940;2023-04-06T08:13:15;16.00;68.40
66088;DHT22;52872;52.994;6.940;2023-04-06T08:15:43;16.50;67.10
66088;DHT22;52872;52.994;6.940;2023-04-06T08:18:41;17.00;65.80
66088;DHT22;52872;52.994;6.940;2023-04-06T08:21:08;17.70;62.90
66088;DHT22;52872;52.994;6.940;2023-04-06T08:23:35;17.90;62.90
66088;DHT22;52872;52.994;6.940;2023-04-06T08:26:02;18.10;62.10
66088;DHT22;52872;52.994;6.940;2023-04-06T08:28:29;18.30;61.20
66088;DHT22;52872;52.994;6.940;2023-04-06T08:30:56;18.50;60.80
66088;DHT22;52872;52.994;6.940;2023-04-06T08:33:23;18.60;60.20
66088;DHT22;52872;52.994;6.940;2023-04-06T08:35:50;18.50;59.30
66088;DHT22;52872;52.994;6.940;2023-04-06T08:38:18;18.50;59.90
66088;DHT22;52872;52.994;6.940;2023-04-06T08:40:45;18.40;59.30
66088;DHT22;52872;52.994;6.940;2023-04-06T08:43:15;18.30;59.50
66088;DHT22;52872;52.994;6.940;2023-04-06T08:45:43;18.10;58.80
66088;DHT22;52872;52.994;6.940;2023-04-06T08:48:12;17.90;59.00
66088;DHT22;52872;52.994;6.940;2023-04-06T08:50:39;17.40;58.80
66088;DHT22;52872;52.994;6.940;2023-04-06T08:53:07;16.80;61.00
66088;DHT22;52872;52.994;6.940;2023-04-06T08:55:35;16.40;61.30
66088;DHT22;52872;52.994;6.940;2023-04-06T08:58:03;15.90;62.00
66088;DHT22;52872;52.994;6.940;2023-04-06T09:00:35;15.20;62.40
66088;DHT22;52872;52.994;6.940;2023-04-06T09:03:05;14.70;63.30
66088;DHT22;52872;52.994;6.940;2023-04-06T09:05:33;14.30;64.60
66088;DHT22;52872;52.994;6.940;2023-04-06T09:08:00;13.80;65.00
66088;DHT22;52872;52.994;6.940;2023-04-06T09:10:27;13.50;65.50
66088;DHT22;52872;52.994;6.940;2023-04-06T09:13:06;13.10;65.80
66088;DHT22;52872;52.994;6.940;2023-04-06T09:15:34;13.10;67.00
66088;DHT22;52872;52.994;6.940;2023-04-06T09:18:01;12.80;67.20
66088;DHT22;52872;52.994;6.940;2023-04-06T09:20:28;12.70;67.30
66088;DHT22;52872;52.994;6.940;2023-04-06T09:22:55;12.80;67.20
66088;DHT22;52872;52.994;6.940;2023-04-06T09:25:24;12.70;67.30
66088;DHT22;52872;52.994;6.940;2023-04-06T09:28:01;12.70;67.50
66088;DHT22;52872;52.994;6.940;2023-04-06T09:30:29;12.80;67.10
66088;DHT22;52872;52.994;6.940;2023-04-06T09:32:57;12.80;66.70
66088;DHT22;52872;52.994;6.940;2023-04-06T09:35:25;12.80;66.50
66088;DHT22;52872;52.994;6.940;2023-04-06T09:37:53;12.80;65.90
66088;DHT22;52872;52.994;6.940;2023-04-06T09:40:21;12.80;65.90
66088;DHT22;52872;52.994;6.940;2023-04-06T09:42:50;12.90;66.30
66088;DHT22;52872;52.994;6.940;2023-04-06T09:45:19;13.00;65.90
66088;DHT22;52872;52.994;6.940;2023-04-06T09:47:47;13.00;65.70
66088;DHT22;52872;52.994;6.940;2023-04-06T09:50:15;13.00;66.20
66088;DHT22;52872;52.994;6.940;2023-04-06T09:52:50;13.20;66.30
66088;DHT22;52872;52.994;6.940;2023-04-06T09:55:42;13.30;64.70
66088;DHT22;52872;52.994;6.940;2023-04-06T09:58:12;13.30;64.40
66088;DHT22;52872;52.994;6.940;2023-04-06T10:01:05;13.30;64.20
66088;DHT22;52872;52.994;6.940;2023-04-06T10:03:46;13.50;66.60
66088;DHT22;52872;52.994;6.940;2023-04-06T10:06:15;13.60;66.10
66088;DHT22;52872;52.994;6.940;2023-04-06T10:08:46;13.70;65.50
66088;DHT22;52872;52.994;6.940;2023-04-06T10:11:13;13.90;65.70
66088;DHT22;52872;52.994;6.940;2023-04-06T10:13:42;14.00;65.20
66088;DHT22;52872;52.994;6.940;2023-04-06T10:16:13;14.20;66.10
66088;DHT22;52872;52.994;6.940;2023-04-06T10:18:48;14.40;65.90
66088;DHT22;52872;52.994;6.940;2023-04-06T10:21:20;14.60;65.50
66088;DHT22;52872;52.994;6.940;2023-04-06T10:23:52;14.70;64.90
66088;DHT22;52872;52.994;6.940;2023-04-06T10:26:21;15.00;65.90
66088;DHT22;52872;52.994;6.940;2023-04-06T10:28:49;15.10;64.80
66088;DHT22;52872;52.994;6.940;2023-04-06T10:31:25;15.20;64.20
66088;DHT22;52872;52.994;6.940;2023-04-06T10:34:02;15.10;62.60
66088;DHT22;52872;52.994;6.940;2023-04-06T10:36:33;15.20;63.40
66088;DHT22;52872;52.994;6.940;2023-04-06T10:39:05;15.20;62.20
66088;DHT22;52872;52.994;6.940;2023-04-06T10:41:36;15.40;63.40
66088;DHT22;52872;52.994;6.940;2023-04-06T10:44:07;15.60;62.40
66088;DHT22;52872;52.994;6.940;2023-04-06T10:46:34;15.90;62.50
66088;DHT22;52872;52.994;6.940;2023-04-06T10:49:11;16.10;62.50
66088;DHT22;52872;52.994;6.940;2023-04-06T10:51:39;16.30;60.80
66088;DHT22;52872;52.994;6.940;2023-04-06T10:54:06;16.50;61.40
66088;DHT22;52872;52.994;6.940;2023-04-06T10:56:37;16.70;61.20
66088;DHT22;52872;52.994;6.940;2023-04-06T10:59:06;16.90;60.70
66088;DHT22;52872;52.994;6.940;2023-04-06T11:01:34;17.10;60.70
66088;DHT22;52872;52.994;6.940;2023-04-06T11:04:01;17.00;60.50
66088;DHT22;52872;52.994;6.940;2023-04-06T11:06:29;17.00;58.20
66088;DHT22;52872;52.994;6.940;2023-04-06T11:08:58;17.10;59.30
66088;DHT22;52872;52.994;6.940;2023-04-06T11:11:26;17.20;60.00
66088;DHT22;52872;52.994;6.940;2023-04-06T11:13:58;17.20;59.70
66088;DHT22;52872;52.994;6.940;2023-04-06T11:16:27;17.40;60.00
66088;DHT22;52872;52.994;6.940;2023-04-06T11:21:39;17.30;59.00
66088;DHT22;52872;52.994;6.940;2023-04-06T11:26:50;17.50;58.60
66088;DHT22;52872;52.994;6.940;2023-04-06T11:29:19;17.60;60.00
66088;DHT22;52872;52.994;6.940;2023-04-06T11:31:51;17.70;59.10
66088;DHT22;52872;52.994;6.940;2023-04-06T11:34:23;17.80;58.40
66088;DHT22;52872;52.994;6.940;2023-04-06T11:36:58;17.90;57.70
66088;DHT22;52872;52.994;6.940;2023-04-06T11:39:26;17.80;56.30
66088;DHT22;52872;52.994;6.940;2023-04-06T11:42:02;17.60;57.10
66088;DHT22;52872;52.994;6.940;2023-04-06T11:44:44;17.90;57.10
66088;DHT22;52872;52.994;6.940;2023-04-06T11:47:13;17.90;56.80
66088;DHT22;52872;52.994;6.940;2023-04-06T11:49:42;17.90;57.10
66088;DHT22;52872;52.994;6.940;2023-04-06T11:52:15;17.90;55.60
66088;DHT22;52872;52.994;6.940;2023-04-06T11:54:43;18.10;56.30
66088;DHT22;52872;52.994;6.940;2023-04-06T11:57:10;18.10;55.10
66088;DHT22;52872;52.994;6.940;2023-04-06T11:59:37;18.10;55.30
66088;DHT22;52872;52.994;6.940;2023-04-06T12:02:04;18.10;54.80
66088;DHT22;52872;52.994;6.940;2023-04-06T12:04:32;18.20;54.80
66088;DHT22;52872;52.994;6.940;2023-04-06T12:06:59;18.30;55.10
66088;DHT22;52872;52.994;6.940;2023-04-06T12:09:26;18.30;54.40
66088;DHT22;52872;52.994;6.940;2023-04-06T12:11:53;18.20;54.90
66088;DHT22;52872;52.994;6.940;2023-04-06T12:14:20;18.20;55.10
66088;DHT22;52872;52.994;6.940;2023-04-06T12:16:47;17.90;53.90
66088;DHT22;52872;52.994;6.940;2023-04-06T12:19:14;17.90;55.40
66088;DHT22;52872;52.994;6.940;2023-04-06T12:21:41;17.70;55.50
66088;DHT22;52872;52.994;6.940;2023-04-06T12:24:09;17.70;56.40
66088;DHT22;52872;52.994;6.940;2023-04-06T12:26:36;17.80;56.00
66088;DHT22;52872;52.994;6.940;2023-04-06T12:29:03;17.80;55.70
66088;DHT22;52872;52.994;6.940;2023-04-06T12:31:37;17.60;55.80
66088;DHT22;52872;52.994;6.940;2023-04-06T12:34:11;17.40;56.80
66088;DHT22;52872;52.994;6.940;2023-04-06T12:36:38;17.50;57.00
66088;DHT22;52872;52.994;6.940;2023-04-06T12:39:05;17.60;57.10
66088;DHT22;52872;52.994;6.940;2023-04-06T12:41:32;17.40;56.60
66088;DHT22;52872;52.994;6.940;2023-04-06T12:44:00;17.50;57.50
66088;DHT22;52872;52.994;6.940;2023-04-06T12:46:27;17.40;56.80
66088;DHT22;52872;52.994;6.940;2023-04-06T12:48:56;17.30;57.00
66088;DHT22;52872;52.994;6.940;2023-04-06T12:51:27;17.40;56.90
66088;DHT22;52872;52.994;6.940;2023-04-06T12:53:54;17.40;57.00
66088;DHT22;52872;52.994;6.940;2023-04-06T12:56:22;17.40;57.20
66088;DHT22;52872;52.994;6.940;2023-04-06T12:58:51;17.30;56.60
66088;DHT22;52872;52.994;6.940;2023-04-06T13:01:18;17.30;56.30
66088;DHT22;52872;52.994;6.940;2023-04-06T13:03:45;17.20;56.90
66088;DHT22;52872;52.994;6.940;2023-04-06T13:06:12;17.20;57.00
66088;DHT22;52872;52.994;6.940;2023-04-06T13:08:41;17.20;57.90
66088;DHT22;52872;52.994;6.940;2023-04-06T13:11:09;17.40;57.20
66088;DHT22;52872;52.994;6.940;2023-04-06T13:13:36;17.40;57.80
66088;DHT22;52872;52.994;6.940;2023-04-06T13:16:09;17.40;57.10
66088;DHT22;52872;52.994;6.940;2023-04-06T13:18:37;17.30;56.10
66088;DHT22;52872;52.994;6.940;2023-04-06T13:21:05;17.10;56.30
66088;DHT22;52872;52.994;6.940;2023-04-06T13:23:33;17.10;56.50
66088;DHT22;52872;52.994;6.940;2023-04-06T13:26:03;17.00;56.50
66088;DHT22;52872;52.994;6.940;2023-04-06T13:28:32;17.20;56.70
66088;DHT22;52872;52.994;6.940;2023-04-06T13:31:00;17.00;56.40
66088;DHT22;52872;52.994;6.940;2023-04-06T13:33:28;16.90;56.40
66088;DHT22;52872;52.994;6.940;2023-04-06T13:35:56;17.00;57.50
66088;DHT22;52872;52.994;6.940;2023-04-06T13:38:23;17.20;57.50
66088;DHT22;52872;52.994;6.940;2023-04-06T13:40:53;17.40;56.50
66088;DHT22;52872;52.994;6.940;2023-04-06T13:43:20;17.40;55.20
66088;DHT22;52872;52.994;6.940;2023-04-06T13:45:51;17.40;55.70
66088;DHT22;52872;52.994;6.940;2023-04-06T13:48:18;17.40;55.50
66088;DHT22;52872;52.994;6.940;2023-04-06T13:50:45;17.40;55.20
66088;DHT22;52872;52.994;6.940;2023-04-06T13:53:13;17.20;55.40
66088;DHT22;52872;52.994;6.940;2023-04-06T13:55:40;17.30;55.40
66088;DHT22;52872;52.994;6.940;2023-04-06T13:58:07;17.30;54.80
66088;DHT22;52872;52.994;6.940;2023-04-06T14:00:35;17.20;54.80
66088;DHT22;52872;52.994;6.940;2023-04-06T14:03:02;17.30;56.20
66088;DHT22;52872;52.994;6.940;2023-04-06T14:05:33;17.30;55.80
66088;DHT22;52872;52.994;6.940;2023-04-06T14:08:01;17.40;56.00
66088;DHT22;52872;52.994;6.940;2023-04-06T14:10:28;17.40;55.50
66088;DHT22;52872;52.994;6.940;2023-04-06T14:12:55;17.40;55.50
66088;DHT22;52872;52.994;6.940;2023-04-06T14:15:22;17.10;54.70
66088;DHT22;52872;52.994;6.940;2023-04-06T14:17:50;16.90;55.20
66088;DHT22;52872;52.994;6.940;2023-04-06T14:20:18;16.90;56.00
66088;DHT22;52872;52.994;6.940;2023-04-06T14:22:45;17.10;56.30
66088;DHT22;52872;52.994;6.940;2023-04-06T14:25:13;17.10;56.30
66088;DHT22;52872;52.994;6.940;2023-04-06T14:27:40;17.00;56.10
66088;DHT22;52872;52.994;6.940;2023-04-06T14:30:07;17.00;56.20
66088;DHT22;52872;52.994;6.940;2023-04-06T14:32:35;16.80;56.10
66088;DHT22;52872;52.994;6.940;2023-04-06T14:35:04;16.70;56.30
66088;DHT22;52872;52.994;6.940;2023-04-06T14:37:33;16.80;57.50
66088;DHT22;52872;52.994;6.940;2023-04-06T14:40:00;16.80;57.10
66088;DHT22;52872;52.994;6.940;2023-04-06T14:42:27;16.80;56.90
66088;DHT22;52872;52.994;6.940;2023-04-06T14:44:54;16.70;56.60
66088;DHT22;52872;52.994;6.940;2023-04-06T14:47:21;16.60;57.10
66088;DHT22;52872;52.994;6.940;2023-04-06T14:49:52;16.70;57.60
66088;DHT22;52872;52.994;6.940;2023-04-06T14:52:20;16.80;58.60
66088;DHT22;52872;52.994;6.940;2023-04-06T14:54:47;16.80;60.30
66088;DHT22;52872;52.994;6.940;2023-04-06T14:57:14;16.80;60.80
66088;DHT22;52872;52.994;6.940;2023-04-06T14:59:41;16.70;61.40
66088;DHT22;52872;52.994;6.940;2023-04-06T15:02:07;16.70;62.30
66088;DHT22;52872;52.994;6.940;2023-04-06T15:04:35;16.60;61.80
66088;DHT22;52872;52.994;6.940;2023-04-06T15:07:03;16.60;62.90
66088;DHT22;52872;52.994;6.940;2023-04-06T15:09:30;16.60;63.00
66088;DHT22;52872;52.994;6.940;2023-04-06T15:11:57;16.60;63.20
66088;DHT22;52872;52.994;6.940;2023-04-06T15:14:24;16.60;63.50
66088;DHT22;52872;52.994;6.940;2023-04-06T15:16:51;16.50;63.70
66088;DHT22;52872;52.994;6.940;2023-04-06T15:19:18;16.40;63.90
66088;DHT22;52872;52.994;6.940;2023-04-06T15:21:45;16.30;63.90
66088;DHT22;52872;52.994;6.940;2023-04-06T15:24:12;16.30;64.20
66088;DHT22;52872;52.994;6.940;2023-04-06T15:26:39;16.20;64.00
66088;DHT22;52872;52.994;6.940;2023-04-06T15:29:06;16.20;64.50
66088;DHT22;52872;52.994;6.940;2023-04-06T15:31:33;16.10;64.60
66088;DHT22;52872;52.994;6.940;2023-04-06T15:34:04;16.10;64.80
66088;DHT22;52872;52.994;6.940;2023-04-06T15:36:32;16.00;65.50
66088;DHT22;52872;52.994;6.940;2023-04-06T15:38:59;15.90;66.00
66088;DHT22;52872;52.994;6.940;2023-04-06T15:41:27;15.80;66.40
66088;DHT22;52872;52.994;6.940;2023-04-06T15:43:54;15.80;66.70
66088;DHT22;52872;52.994;6.940;2023-04-06T15:46:22;15.70;66.60
66088;DHT22;52872;52.994;6.940;2023-04-06T15:48:49;15.70;66.90
66088;DHT22;52872;52.994;6.940;2023-04-06T15:51:16;15.70;67.40
66088;DHT22;52872;52.994;6.940;2023-04-06T15:53:44;15.60;67.50
66088;DHT22;52872;52.994;6.940;2023-04-06T15:56:11;15.40;67.10